Startpagina
METAR-TAF:

METAR-TAF

Vliegvelden :

Livingstone, Zambia

breedte: 17-49-18S, lengte: 025-49-22E, hoogte: 991 m

Actueel weer

Dit bericht is 11 uur en het 30 minuten geleden gemaakt, om 14:00 UTC
Wind 15 kt uit het noordnoordoosten met uitschieters tot 27 kt
Temperatuur 31°C
Vochtigheid 52%
Druk 1015 hPa
Zicht 10 km of meer
Weinig wolken op 4000 ft, Cumulonimbus.
Verspreide wolken op 4000 ft
onweer

METAR: FLHN 281400Z 02015G27KT 9999 TS FEW040CB SCT040 31/20 Q1015 NOSIG

Tijdstip: 03:30 (01:30 UTC)


TAF: ontbreekt

Waarnemingen en weersverwachtingen van meer dan 4000 vliegvelden (METAR en TAF).

De beschikbare stations zijn de gele en rode punten op de kaart.

Ga met uw muis naar het station om de naam te zien.

Klik dan om waarnemingen en weersverwachtingen te zien.

kaart wijzigen: klik op de groene knoppen met een zwart kruis om in te zoomen, op de groene knop met een streepje om uit te zoomen of op de groene pijlen voor aangrenzende kaarten.


METAR-TAF: